Flight Track Log - Related Links

Times and Time Zones

All times are in EDT time to prevent confusion due to time zone crossing. See the UAL594 flight status page for this flight to view local times or setup timezone preferences in your user account.

Time Position Orientation Groundspeed Altitude Reporting Facility
EDT Latitude Longitude Course Direction KTS MPH feet Rate Location/Type
Thu 12:04:54 PM 38.9333 -77.6000 288° West 238 274 4,000  Level Potomac TRACON
Thu 12:05:35 PM 38.9144 -77.6644 249° West 247 284 6,000 3,089 Climbing Washington Center
Thu 12:06:00 PM 38.8847 -77.6973 237° Southwest  Level FlightAware Approximate
Thu 12:06:35 PM 38.8775 -77.7461 240° Southwest 257 296 9,200  Level Washington Center
Thu 12:07:00 PM 38.8500 -77.7685 270° West  Level FlightAware Approximate
Thu 12:07:35 PM 38.8344 -77.8169 232° Southwest 276 318 10,900  Level Washington Center
Thu 12:08:00 PM 38.8113 -77.8376 228° Southwest  Level FlightAware Approximate
Thu 12:08:35 PM 38.7889 -77.9167 240° Southwest 304 350 12,600  Level Washington Center
Thu 12:09:00 PM 38.7690 -77.9023 322° Northwest  Level FlightAware Approximate
Thu 12:09:35 PM 38.8133 -78.0428 284° West 313 360 14,900  Level Washington Center
Thu 12:10:00 PM 38.7988 -77.9785 288° West  Level FlightAware Approximate
Thu 12:10:35 PM 38.8461 -78.1717 288° West 342 394 16,900  Level Washington Center
Thu 12:11:35 PM 38.8536 -78.3053 274° West 369 425 18,700 1,800 Climbing Washington Center
Thu 12:12:35 PM 38.8525 -78.4467 269° West 389 448 20,500 1,400 Climbing Washington Center
Thu 12:13:35 PM 38.8511 -78.5906 269° West 401 461 21,500 1,100 Climbing Washington Center
Thu 12:14:35 PM 38.8492 -78.7478 269° West 423 487 22,700 1,200 Climbing Washington Center
Thu 12:15:35 PM 38.8469 -78.9047 269° West 436 502 23,900 1,100 Climbing Washington Center
Thu 12:16:35 PM 38.8444 -79.0672 269° West 448 516 24,900 1,050 Climbing Washington Center
Thu 12:17:35 PM 38.8375 -79.2297 267° West 455 524 26,000 1,100 Climbing Washington Center
Thu 12:18:35 PM 38.8075 -79.3906 257° West 460 529 27,100 1,450 Climbing Washington Center
Thu 12:19:35 PM 38.7767 -79.5700 258° West 465 535 28,900 1,300 Climbing Washington Center
Thu 12:20:35 PM 38.7511 -79.7125 257° West 470 541 29,700 1,000 Climbing Washington Center
Thu 12:21:35 PM 38.7228 -79.8681 257° West 464 534 30,900 1,250 Climbing Washington Center
Thu 12:22:35 PM 38.6942 -80.0233 257° West 459 528 32,200 1,210 Climbing Washington Center
Thu 12:23:39 PM 38.6597 -80.1867 255° West 442 509 33,400 857 Climbing Indianapolis Center
Thu 12:24:41 PM 38.6294 -80.3394 256° West 442 509 34,000 293 Climbing Indianapolis Center
Thu 12:25:42 PM 38.6006 -80.4925 256° West 441 507 34,000  Level Indianapolis Center
Thu 12:26:43 PM 38.5728 -80.6436 257° West 437 503 34,000  Level Indianapolis Center
Thu 12:27:45 PM 38.5433 -80.7958 256° West 441 507 34,000  Level Indianapolis Center
Thu 12:28:46 PM 38.5142 -80.9497 256° West 444 511 34,000  Level Indianapolis Center
Thu 12:29:47 PM 38.4831 -81.1044 256° West 447 514 34,000  Level Indianapolis Center
Thu 12:30:49 PM 38.4522 -81.2589 256° West 446 513 34,000  Level Indianapolis Center
Thu 12:31:50 PM 38.4211 -81.4164 256° West 451 519 34,000  Level Indianapolis Center
Thu 12:32:51 PM 38.3892 -81.5758 256° West 458 527 34,000  Level Indianapolis Center
Thu 12:33:53 PM 38.3575 -81.7342 256° West 457 526 34,000  Level Indianapolis Center
Thu 12:34:54 PM 38.3092 -81.9178 252° West 455 524 34,000  Level Indianapolis Center
Thu 12:35:56 PM 38.2661 -82.0667 250° West 449 517 34,000  Level Indianapolis Center
Thu 12:36:57 PM 38.2244 -82.2164 251° West 448 516 34,000  Level Indianapolis Center
Thu 12:37:58 PM 38.1817 -82.3661 250° West 451 519 34,000  Level Indianapolis Center
Thu 12:39:00 PM 38.1364 -82.5250 250° West 448 516 34,000  Level Indianapolis Center
Thu 12:40:01 PM 38.0939 -82.6733 250° West 447 514 34,000  Level Indianapolis Center
Thu 12:41:03 PM 38.0511 -82.8183 250° West 442 509 34,000  Level Indianapolis Center
Thu 12:42:04 PM 38.0089 -82.9692 250° West 450 518 34,000  Level Indianapolis Center
Thu 12:43:05 PM 37.9658 -83.1147 249° West 445 512 34,000  Level Indianapolis Center
Thu 12:44:07 PM 37.9228 -83.2603 249° West 443 510 34,000  Level Indianapolis Center
Thu 12:45:09 PM 37.8800 -83.4072 250° West 443 510 34,000  Level Indianapolis Center
Thu 12:46:10 PM 37.8294 -83.5775 249° West 444 511 34,000  Level Indianapolis Center
Thu 12:47:11 PM 37.8025 -83.7267 257° West 439 505 34,000 -98 Level Indianapolis Center
Thu 12:48:13 PM 37.8533 -83.8614 296° West 433 498 33,800 -1,756 Descending Indianapolis Center
Thu 12:49:14 PM 37.9639 -83.9258 335° Northwest 449 517 30,400 -2,361 Descending Indianapolis Center
Thu 12:50:15 PM 38.0872 -83.9756 342° North 461 531 29,000 -878 Descending Indianapolis Center
Thu 12:51:17 PM 38.2106 -84.0244 343° North 461 531 28,600 -1,463 Descending Indianapolis Center
Thu 12:52:18 PM 38.3333 -84.0744 342° North 462 532 26,000 -1,268 Descending Indianapolis Center
Thu 12:53:20 PM 38.4581 -84.1239 343° North 467 537 26,000  Level Indianapolis Center
Thu 12:54:21 PM 38.6017 -84.1814 343° North 465 535 26,000  Level Indianapolis Center
Thu 12:55:23 PM 38.7253 -84.2328 342° North 484 557 26,000 -49 Level Indianapolis Center
Thu 12:56:24 PM 38.8578 -84.2872 342° North 491 565 25,900 -49 Descending Indianapolis Center
Thu 12:57:26 PM 38.9894 -84.3411 342° North 492 566 25,900 49 Level Indianapolis Center
Thu 12:58:27 PM 39.1211 -84.3950 342° North 491 565 26,000 49 Climbing Indianapolis Center
Thu 12:59:29 PM 39.2550 -84.4522 342° North 497 572 26,000  Level Indianapolis Center
Thu 01:00:30 PM 39.3858 -84.5069 342° North 490 564 26,000 -49 Level Indianapolis Center
Thu 01:01:32 PM 39.5169 -84.5619 342° North 490 564 25,900  Descending Indianapolis Center
Thu 01:02:33 PM 39.6486 -84.6169 342° North 491 565 26,000  Climbing Indianapolis Center
Thu 01:03:35 PM 39.7800 -84.6719 342° North 489 563 25,900 -49 Descending Indianapolis Center
Thu 01:04:36 PM 39.9128 -84.7272 342° North 494 568 25,900  Level Indianapolis Center
Thu 01:05:38 PM 40.0653 -84.7922 342° North 490 564 25,900  Level Indianapolis Center
Thu 01:06:39 PM 40.1975 -84.8483 342° North 493 567 25,900  Level Indianapolis Center
Thu 01:07:40 PM 40.3269 -84.9044 342° North 486 559 25,900 -537 Level Indianapolis Center
Thu 01:08:42 PM 40.4578 -84.9603 342° North 487 560 24,800 -976 Descending Indianapolis Center
Thu 01:09:43 PM 40.5836 -85.0153 342° North 476 548 23,900 -500 Descending Indianapolis Center
Thu 01:10:18 PM 40.6553 -85.0436 343° North 481 554 24,000 -1,063 Climbing Chicago Center
Thu 01:11:19 PM 40.7806 -85.0972 342° North 477 549 22,200 -976 Descending Chicago Center
Thu 01:12:21 PM 40.9075 -85.1553 341° North 479 551 22,000 -98 Descending Chicago Center
Thu 01:13:22 PM 41.0406 -85.1814 352° North 486 559 22,000  Level Chicago Center
Thu 01:14:24 PM 41.1717 -85.2011 354° North 477 549 22,000  Level Chicago Center
Thu 01:15:25 PM 41.3025 -85.2197 354° North 476 548 22,000  Level Chicago Center
Thu 01:16:27 PM 41.4603 -85.2272 358° North 493 567 22,000  Level Chicago Center
Thu 01:17:28 PM 41.5461 -85.3247 320° Northwest 419 482 22,000  Level Chicago Center
Thu 01:18:30 PM 41.5456 -85.4672 270° West 377 434 22,000  Level Chicago Center
Thu 01:19:31 PM 41.4936 -85.5833 239° Southwest 360 414 22,000  Level Chicago Center
Thu 01:20:33 PM 41.4408 -85.6975 238° Southwest 361 415 22,000  Level Chicago Center
Thu 01:21:34 PM 41.3892 -85.8072 238° Southwest 351 404 22,000  Level Chicago Center
Thu 01:22:36 PM 41.3378 -85.9192 239° Southwest 354 407 22,000  Level Chicago Center
Thu 01:23:37 PM 41.2917 -86.0164 238° Southwest 316 364 22,000  Level Chicago Center
Thu 01:24:39 PM 41.2417 -86.1089 234° Southwest 310 357 22,000  Level Chicago Center
Thu 01:25:40 PM 41.1414 -86.1253 187° South 319 367 22,000  Level Chicago Center
Thu 01:26:42 PM 41.0792 -86.0297 131° Southeast 361 415 22,000  Level Chicago Center
Thu 01:27:43 PM 41.0758 -85.8792 92° East 405 466 22,000  Level Chicago Center
Thu 01:28:45 PM 41.0986 -85.7278 79° East 430 495 22,000  Level Chicago Center
Thu 01:29:47 PM 41.2039 -85.6672 23° Northeast 426 490 22,000  Level Chicago Center
Thu 01:30:48 PM 41.2875 -85.7467 324° Northwest 375 432 22,000  Level Chicago Center
Thu 01:31:50 PM 41.3206 -85.8714 289° West 358 412 22,000  Level Chicago Center
Thu 01:32:51 PM 41.3514 -86.0019 288° West 367 422 22,000 -244 Level Chicago Center
Thu 01:33:53 PM 41.3894 -86.1578 288° West 367 422 21,500 -634 Descending Chicago Center
Thu 01:34:54 PM 41.4197 -86.2869 287° West 366 421 20,700 -1,122 Descending Chicago Center
Thu 01:35:56 PM 41.4714 -86.4075 300° West 383 441 19,200 -2,439 Descending Chicago Center
Thu 01:36:57 PM 41.5264 -86.5217 303° West 369 425 15,700 -3,073 Descending Chicago Center
Thu 01:37:59 PM 41.5778 -86.6300 302° West 352 405 12,900 -1,805 Descending Chicago Center
Thu 01:39:00 PM 41.6292 -86.7375 303° West 339 390 12,000 -439 Descending Chicago Center
Thu 01:40:02 PM 41.7086 -86.8028 328° Northwest 366 421 12,000 -293 Level Chicago Center
Thu 01:41:03 PM 41.8064 -86.8150 355° North 359 413 11,400 -488 Descending Chicago Center
Thu 01:42:05 PM 41.8944 -86.8742 333° Northwest 312 359 11,000 -878 Descending Chicago Center
Thu 01:43:06 PM 41.9431 -86.9553 309° West 285 328 9,600 -976 Descending Chicago Center
Thu 01:44:08 PM 41.9781 -87.0414 299° West 267 307 9,000 -390 Descending Chicago Center
Thu 01:45:09 PM 41.9833 -87.1397 274° West 267 307 8,800 -976 Descending Chicago Center
Thu 01:46:11 PM 41.9839 -87.2367 270° West 264 304 7,000 -878 Descending Chicago Center
Thu 01:47:12 PM 41.9839 -87.3308 270° West 258 297 7,000  Level Chicago Center
Thu 01:47:48 PM 41.9833 -87.4000 269° West 217 250 7,000 -63 Level Chicago TRACON
Thu 01:48:48 PM 41.9833 -87.4667 270° West 200 230 6,900 -595 Descending Chicago TRACON
Thu 01:49:49 PM 41.9833 -87.5333 270° West 165 190 5,800 -942 Descending Chicago TRACON
Thu 01:50:49 PM 41.9833 -87.6000 270° West 158 182 5,000 -850 Descending Chicago TRACON
Thu 01:51:49 PM 41.9833 -87.6500 270° West 161 185 4,100 -900 Descending Chicago TRACON
Thu 01:52:49 PM 41.9833 -87.7167 270° West 163 188 3,200 -900 Descending Chicago TRACON

Login

Don't have an account? Register now (free) for customized features, flight alerts, and more!